Woodgate, New York
Current Conditions -  °F | °C
As of 3:53 AM on Tuesday 21 Oct 2014 (Local Time) from KRME Reporting Station
Light Rain Light Rain  
Wind Chill: 46°   Ceiling: 4900
Heat Index: 46°   Visibility: 10mi
Dew Point: 44°   Wind: 0mph
Humidity: 93%   Direction: NA
Pressure: 29.88"   Gusts: NA
Location:  43.52°N, 75.16°W
Report Text: KRME 210753Z AUTO 00000KT 10SM -RA BKN049 BKN060 OVC070 08/07 A2988 RMK AO2 SLP117 P0001 T00780067
Loading
Personal Weather Stations






























Interactive Weather Map
Tropical Storm Tracking
New forecast layout! Learn more

10-Day Weather Forecast

Advertisements
Track Severe Weather on mobile